الصفحة الرئيسية
METAR-TAF:

METAR-TAF

مطار :

قاعدة البساتين الجوية

مكناس, المغرب

دائرة عرض: 33-53N, خط طول: 005-32W, ارتفاع: 576 متر

مراقبة الطقس الحالي

تاريخ ووقت الإصدار 3ساعات و 5 دقيقة قبل الساعة 00:20UTC
ريح 2 عقدةمن اتجاهات متغيرة
درجة الحرارة 9°درجة مئوية
الرطوبة 93%
ضغط 1028 hPa
الرؤية: 4000 متر
غيوم متفرقة على ارتفاع 1000 قدم

METAR: GMFM 180020Z VRB02KT 4000 SCT010 09/08 Q1028 M0

زمن: 04:25 (03:25 UTC)

توقعات

تاريخ ووقت الإصدار 4ساعات و 25 دقيقة قبل الساعة 23:00UTC
التوقعات صالحة من18 الساعة 00 UTC إلى 19 الساعة 06 UTC
ريح 2 عقدةمن اتجاهات متغيرة
الرؤية: 6000 متر
مؤقت
من 18 الساعة 02 UTC إلى 18 الساعة 09 UTC
الرؤية: 4000 متر
غيوم متفرقة على ارتفاع 1000 قدم
غشاء
أصبح
من 18 الساعة 10 UTC إلى 18 الساعة 14 UTC
ريح 8 عقدة من الشمال الغربي
الرؤية 10 كم أو أكثر
الغيوم لا تقل 1500 م ولا وجود لمزنة ركامية السحاب الأسود

TAF: GMFM 172300Z 1800/1906 VRB02KT 6000 NSC TEMPO 1802/1809 4000 BR SCT010 BECMG 1810/1814 32008KT CAVOK

أرصاد الطقس والتوقعات من أكثر من 4000 مطار (تقارير الطقس للمطار METAR والتنبؤ بالطقس بالمطارTAF).

المحطات المتاحة هي النقط الصفراء والحمراء على الخريطة.

حرك المؤشر فوق النقطة لمعرفة اسم المحطة.

ثم انقر لمعرفة أرصاد وتوقعات الطقس.

لتغيير الخارطة: اضغط على الأزرار الخضراء مع رمز الصليب الأسود للتكبير. على الزر الأخضر مع شرطة للتصغير، أو على الأسهم الخضراء للخرائط المجاورة.


METAR-TAF: